sensor_id;sensor_type;location;lat;lon;timestamp;temperature;humidity
7014;DHT22;3547;50.774;12.918;2024-03-23T00:54:42;9.20;1.00
7014;DHT22;3547;50.774;12.918;2024-03-23T00:57:08;9.20;1.00
7014;DHT22;3547;50.774;12.918;2024-03-23T00:59:34;9.20;1.00
7014;DHT22;3547;50.774;12.918;2024-03-23T01:02:00;9.20;1.00
7014;DHT22;3547;50.774;12.918;2024-03-23T01:04:26;9.20;1.00
7014;DHT22;3547;50.774;12.918;2024-03-23T01:06:52;9.30;1.00
7014;DHT22;3547;50.774;12.918;2024-03-23T01:09:18;9.30;1.00
7014;DHT22;3547;50.774;12.918;2024-03-23T01:11:44;9.40;1.00
7014;DHT22;3547;50.774;12.918;2024-03-23T01:14:10;9.40;1.00
7014;DHT22;3547;50.774;12.918;2024-03-23T01:16:36;9.50;1.00
7014;DHT22;3547;50.774;12.918;2024-03-23T01:19:02;9.50;1.00
7014;DHT22;3547;50.774;12.918;2024-03-23T01:21:28;9.50;1.00
7014;DHT22;3547;50.774;12.918;2024-03-23T01:23:55;9.50;1.00
7014;DHT22;3547;50.774;12.918;2024-03-23T01:26:21;9.50;1.00
7014;DHT22;3547;50.774;12.918;2024-03-23T01:28:48;9.50;1.00
7014;DHT22;3547;50.774;12.918;2024-03-23T01:31:14;9.40;1.00
7014;DHT22;3547;50.774;12.918;2024-03-23T01:33:41;9.40;1.00
7014;DHT22;3547;50.774;12.918;2024-03-23T01:36:07;9.30;1.00
7014;DHT22;3547;50.774;12.918;2024-03-23T01:38:34;9.30;1.00
7014;DHT22;3547;50.774;12.918;2024-03-23T01:41:02;9.20;1.00
7014;DHT22;3547;50.774;12.918;2024-03-23T01:43:29;9.10;1.00
7014;DHT22;3547;50.774;12.918;2024-03-23T01:45:55;9.00;1.00
7014;DHT22;3547;50.774;12.918;2024-03-23T01:48:21;8.90;1.00
7014;DHT22;3547;50.774;12.918;2024-03-23T01:50:47;8.90;1.00
7014;DHT22;3547;50.774;12.918;2024-03-23T01:53:14;8.80;1.00
7014;DHT22;3547;50.774;12.918;2024-03-23T01:55:43;8.80;1.00
7014;DHT22;3547;50.774;12.918;2024-03-23T01:58:09;8.70;1.00
7014;DHT22;3547;50.774;12.918;2024-03-23T02:00:36;8.60;1.00
7014;DHT22;3547;50.774;12.918;2024-03-23T02:03:02;8.60;1.00
7014;DHT22;3547;50.774;12.918;2024-03-23T02:05:28;8.60;1.00
7014;DHT22;3547;50.774;12.918;2024-03-23T02:07:55;8.50;1.00
7014;DHT22;3547;50.774;12.918;2024-03-23T02:10:21;8.60;1.00
7014;DHT22;3547;50.774;12.918;2024-03-23T02:12:47;8.60;1.00
7014;DHT22;3547;50.774;12.918;2024-03-23T02:15:13;8.60;1.00
7014;DHT22;3547;50.774;12.918;2024-03-23T02:17:39;8.60;1.00
7014;DHT22;3547;50.774;12.918;2024-03-23T02:20:05;8.60;1.00
7014;DHT22;3547;50.774;12.918;2024-03-23T02:22:39;8.50;1.00
7014;DHT22;3547;50.774;12.918;2024-03-23T02:25:05;8.50;1.00
7014;DHT22;3547;50.774;12.918;2024-03-23T02:27:32;8.60;1.00
7014;DHT22;3547;50.774;12.918;2024-03-23T02:29:59;8.60;1.00
7014;DHT22;3547;50.774;12.918;2024-03-23T02:32:25;8.60;1.00
7014;DHT22;3547;50.774;12.918;2024-03-23T02:34:51;8.60;1.00
7014;DHT22;3547;50.774;12.918;2024-03-23T02:37:17;8.50;1.00
7014;DHT22;3547;50.774;12.918;2024-03-23T02:39:44;8.50;1.00
7014;DHT22;3547;50.774;12.918;2024-03-23T02:42:10;8.40;1.00
7014;DHT22;3547;50.774;12.918;2024-03-23T02:44:36;8.20;1.00
7014;DHT22;3547;50.774;12.918;2024-03-23T02:47:02;8.10;1.00
7014;DHT22;3547;50.774;12.918;2024-03-23T02:49:28;8.10;1.00
7014;DHT22;3547;50.774;12.918;2024-03-23T02:51:54;8.10;1.00
7014;DHT22;3547;50.774;12.918;2024-03-23T02:54:20;8.10;1.00
7014;DHT22;3547;50.774;12.918;2024-03-23T02:56:47;8.00;1.00
7014;DHT22;3547;50.774;12.918;2024-03-23T02:59:13;7.90;1.00
7014;DHT22;3547;50.774;12.918;2024-03-23T03:01:39;7.90;1.00
7014;DHT22;3547;50.774;12.918;2024-03-23T03:04:05;7.80;1.00
7014;DHT22;3547;50.774;12.918;2024-03-23T03:06:31;7.70;1.00
7014;DHT22;3547;50.774;12.918;2024-03-23T03:08:57;7.60;1.00
7014;DHT22;3547;50.774;12.918;2024-03-23T03:11:24;7.50;1.00
7014;DHT22;3547;50.774;12.918;2024-03-23T03:13:50;7.40;1.00
7014;DHT22;3547;50.774;12.918;2024-03-23T03:16:16;7.40;1.00
7014;DHT22;3547;50.774;12.918;2024-03-23T03:18:42;7.30;1.00
7014;DHT22;3547;50.774;12.918;2024-03-23T03:21:08;7.30;1.00
7014;DHT22;3547;50.774;12.918;2024-03-23T03:23:38;7.30;1.00
7014;DHT22;3547;50.774;12.918;2024-03-23T03:26:04;7.30;1.00
7014;DHT22;3547;50.774;12.918;2024-03-23T03:28:31;7.30;1.00
7014;DHT22;3547;50.774;12.918;2024-03-23T03:31:01;7.20;1.00
7014;DHT22;3547;50.774;12.918;2024-03-23T03:33:28;7.00;1.00
7014;DHT22;3547;50.774;12.918;2024-03-23T03:35:54;6.90;1.00
7014;DHT22;3547;50.774;12.918;2024-03-23T03:38:21;6.80;1.00
7014;DHT22;3547;50.774;12.918;2024-03-23T03:40:47;6.70;1.00
7014;DHT22;3547;50.774;12.918;2024-03-23T03:43:13;6.70;1.00
7014;DHT22;3547;50.774;12.918;2024-03-23T03:45:40;6.70;1.00
7014;DHT22;3547;50.774;12.918;2024-03-23T03:48:06;6.60;1.00
7014;DHT22;3547;50.774;12.918;2024-03-23T03:50:33;6.60;1.00
7014;DHT22;3547;50.774;12.918;2024-03-23T03:52:59;6.50;1.00
7014;DHT22;3547;50.774;12.918;2024-03-23T03:55:25;6.40;1.00
7014;DHT22;3547;50.774;12.918;2024-03-23T03:57:51;6.10;1.00
7014;DHT22;3547;50.774;12.918;2024-03-23T04:00:17;6.10;1.00
7014;DHT22;3547;50.774;12.918;2024-03-23T04:02:43;6.10;1.00
7014;DHT22;3547;50.774;12.918;2024-03-23T04:05:09;6.00;1.00
7014;DHT22;3547;50.774;12.918;2024-03-23T04:07:35;6.00;1.00
7014;DHT22;3547;50.774;12.918;2024-03-23T04:10:01;6.00;1.00
7014;DHT22;3547;50.774;12.918;2024-03-23T04:12:28;6.00;1.00
7014;DHT22;3547;50.774;12.918;2024-03-23T04:14:54;6.00;1.00
7014;DHT22;3547;50.774;12.918;2024-03-23T04:20:43;5.70;1.00
7014;DHT22;3547;50.774;12.918;2024-03-23T04:23:09;5.70;1.00
7014;DHT22;3547;50.774;12.918;2024-03-23T04:25:35;5.60;1.00
7014;DHT22;3547;50.774;12.918;2024-03-23T04:28:01;5.50;1.00
7014;DHT22;3547;50.774;12.918;2024-03-23T04:30:27;5.50;1.00
7014;DHT22;3547;50.774;12.918;2024-03-23T04:32:55;5.50;1.00
7014;DHT22;3547;50.774;12.918;2024-03-23T04:35:21;5.40;1.00
7014;DHT22;3547;50.774;12.918;2024-03-23T04:37:48;5.40;1.00
7014;DHT22;3547;50.774;12.918;2024-03-23T04:40:14;5.40;1.00
7014;DHT22;3547;50.774;12.918;2024-03-23T04:42:40;5.30;1.00
7014;DHT22;3547;50.774;12.918;2024-03-23T04:45:06;5.30;1.00
7014;DHT22;3547;50.774;12.918;2024-03-23T04:47:32;5.30;1.00
7014;DHT22;3547;50.774;12.918;2024-03-23T04:49:59;5.30;1.00
7014;DHT22;3547;50.774;12.918;2024-03-23T04:52:25;5.20;1.00
7014;DHT22;3547;50.774;12.918;2024-03-23T04:54:51;5.00;1.00
7014;DHT22;3547;50.774;12.918;2024-03-23T04:57:17;5.00;1.00
7014;DHT22;3547;50.774;12.918;2024-03-23T04:59:43;5.00;1.00
7014;DHT22;3547;50.774;12.918;2024-03-23T05:02:09;4.90;1.00
7014;DHT22;3547;50.774;12.918;2024-03-23T05:04:36;4.90;1.00
7014;DHT22;3547;50.774;12.918;2024-03-23T05:07:03;5.00;1.00
7014;DHT22;3547;50.774;12.918;2024-03-23T05:09:30;5.00;1.00
7014;DHT22;3547;50.774;12.918;2024-03-23T05:11:57;4.90;1.00
7014;DHT22;3547;50.774;12.918;2024-03-23T05:14:23;5.00;1.00
7014;DHT22;3547;50.774;12.918;2024-03-23T05:16:49;5.10;1.00
7014;DHT22;3547;50.774;12.918;2024-03-23T05:19:15;5.20;1.00
7014;DHT22;3547;50.774;12.918;2024-03-23T05:21:41;5.30;1.00
7014;DHT22;3547;50.774;12.918;2024-03-23T05:24:07;5.30;1.00
7014;DHT22;3547;50.774;12.918;2024-03-23T05:26:34;5.40;1.00
7014;DHT22;3547;50.774;12.918;2024-03-23T05:29:02;5.40;1.00
7014;DHT22;3547;50.774;12.918;2024-03-23T05:31:29;5.40;1.00
7014;DHT22;3547;50.774;12.918;2024-03-23T05:33:56;5.50;1.00
7014;DHT22;3547;50.774;12.918;2024-03-23T05:36:22;5.60;1.00
7014;DHT22;3547;50.774;12.918;2024-03-23T05:38:50;5.60;1.00
7014;DHT22;3547;50.774;12.918;2024-03-23T05:41:16;5.70;1.00
7014;DHT22;3547;50.774;12.918;2024-03-23T05:43:42;5.70;1.00
7014;DHT22;3547;50.774;12.918;2024-03-23T05:46:08;5.70;1.00
7014;DHT22;3547;50.774;12.918;2024-03-23T05:48:34;5.80;1.00
7014;DHT22;3547;50.774;12.918;2024-03-23T05:51:01;5.80;1.00
7014;DHT22;3547;50.774;12.918;2024-03-23T05:53:27;5.80;1.00
7014;DHT22;3547;50.774;12.918;2024-03-23T05:56:03;5.80;1.00
7014;DHT22;3547;50.774;12.918;2024-03-23T05:58:29;5.80;1.00
7014;DHT22;3547;50.774;12.918;2024-03-23T06:01:00;5.80;1.00
7014;DHT22;3547;50.774;12.918;2024-03-23T06:03:28;5.80;1.00
7014;DHT22;3547;50.774;12.918;2024-03-23T06:05:55;5.80;8.40
7014;DHT22;3547;50.774;12.918;2024-03-23T06:08:21;5.80;22.00
7014;DHT22;3547;50.774;12.918;2024-03-23T06:10:47;5.80;21.80
7014;DHT22;3547;50.774;12.918;2024-03-23T06:13:14;5.90;17.30
7014;DHT22;3547;50.774;12.918;2024-03-23T06:15:40;5.90;26.30
7014;DHT22;3547;50.774;12.918;2024-03-23T06:18:06;5.90;30.00
7014;DHT22;3547;50.774;12.918;2024-03-23T06:20:34;6.00;25.90
7014;DHT22;3547;50.774;12.918;2024-03-23T06:23:03;6.10;20.50
7014;DHT22;3547;50.774;12.918;2024-03-23T06:25:30;6.10;27.90
7014;DHT22;3547;50.774;12.918;2024-03-23T06:27:57;6.10;31.00
7014;DHT22;3547;50.774;12.918;2024-03-23T06:30:24;6.20;35.40
7014;DHT22;3547;50.774;12.918;2024-03-23T06:32:52;6.30;32.40
7014;DHT22;3547;50.774;12.918;2024-03-23T06:35:19;6.40;42.50
7014;DHT22;3547;50.774;12.918;2024-03-23T06:37:45;6.50;44.90
7014;DHT22;3547;50.774;12.918;2024-03-23T06:40:11;6.60;60.70
7014;DHT22;3547;50.774;12.918;2024-03-23T06:42:37;6.70;77.30
7014;DHT22;3547;50.774;12.918;2024-03-23T06:45:04;6.80;75.80
7014;DHT22;3547;50.774;12.918;2024-03-23T06:47:33;7.00;88.30
7014;DHT22;3547;50.774;12.918;2024-03-23T06:50:03;7.10;94.20
7014;DHT22;3547;50.774;12.918;2024-03-23T06:52:32;7.20;92.30
7014;DHT22;3547;50.774;12.918;2024-03-23T06:55:01;7.30;68.00
7014;DHT22;3547;50.774;12.918;2024-03-23T06:57:30;7.30;63.20
7014;DHT22;3547;50.774;12.918;2024-03-23T06:59:56;7.30;49.10
7014;DHT22;3547;50.774;12.918;2024-03-23T07:02:22;7.40;45.90
7014;DHT22;3547;50.774;12.918;2024-03-23T07:04:48;7.50;35.10
7014;DHT22;3547;50.774;12.918;2024-03-23T07:07:14;7.70;44.10
7014;DHT22;3547;50.774;12.918;2024-03-23T07:09:40;7.80;32.20
7014;DHT22;3547;50.774;12.918;2024-03-23T07:15:29;8.10;53.90
7014;DHT22;3547;50.774;12.918;2024-03-23T07:17:55;8.30;67.80
7014;DHT22;3547;50.774;12.918;2024-03-23T07:20:22;8.40;63.50
7014;DHT22;3547;50.774;12.918;2024-03-23T07:22:48;8.60;67.80
7014;DHT22;3547;50.774;12.918;2024-03-23T07:25:14;8.80;67.80
7014;DHT22;3547;50.774;12.918;2024-03-23T07:27:41;9.00;60.60
7014;DHT22;3547;50.774;12.918;2024-03-23T07:33:29;9.30;42.80
7014;DHT22;3547;50.774;12.918;2024-03-23T07:35:55;9.40;34.10
7014;DHT22;3547;50.774;12.918;2024-03-23T07:38:21;9.50;36.80
7014;DHT22;3547;50.774;12.918;2024-03-23T07:40:50;9.60;38.50
7014;DHT22;3547;50.774;12.918;2024-03-23T07:43:21;9.70;34.40
7014;DHT22;3547;50.774;12.918;2024-03-23T07:45:53;9.90;23.10
7014;DHT22;3547;50.774;12.918;2024-03-23T07:54:51;10.70;5.80
7014;DHT22;3547;50.774;12.918;2024-03-23T07:57:17;10.80;2.30
7014;DHT22;3547;50.774;12.918;2024-03-23T07:59:47;10.80;1.00
7014;DHT22;3547;50.774;12.918;2024-03-23T08:05:35;11.20;1.00
7014;DHT22;3547;50.774;12.918;2024-03-23T08:08:01;11.40;1.00
7014;DHT22;3547;50.774;12.918;2024-03-23T08:13:49;11.30;1.00
7014;DHT22;3547;50.774;12.918;2024-03-23T08:16:16;11.10;1.00
7014;DHT22;3547;50.774;12.918;2024-03-23T08:18:50;11.00;1.00
7014;DHT22;3547;50.774;12.918;2024-03-23T08:21:43;11.00;1.00
7014;DHT22;3547;50.774;12.918;2024-03-23T08:24:09;11.00;1.00
7014;DHT22;3547;50.774;12.918;2024-03-23T08:26:35;11.00;1.00
7014;DHT22;3547;50.774;12.918;2024-03-23T08:29:12;10.90;1.00
7014;DHT22;3547;50.774;12.918;2024-03-23T08:31:38;10.90;1.00
7014;DHT22;3547;50.774;12.918;2024-03-23T08:37:27;10.60;1.00
7014;DHT22;3547;50.774;12.918;2024-03-23T08:39:59;9.80;16.10
7014;DHT22;3547;50.774;12.918;2024-03-23T08:42:37;9.40;54.70
7014;DHT22;3547;50.774;12.918;2024-03-23T08:45:03;9.30;99.90
7014;DHT22;3547;50.774;12.918;2024-03-23T08:47:36;9.30;99.90
7014;DHT22;3547;50.774;12.918;2024-03-23T08:50:05;9.40;99.90
7014;DHT22;3547;50.774;12.918;2024-03-23T08:52:32;9.50;99.90
7014;DHT22;3547;50.774;12.918;2024-03-23T08:54:58;9.50;98.40
7014;DHT22;3547;50.774;12.918;2024-03-23T08:57:33;9.50;99.90
7014;DHT22;3547;50.774;12.918;2024-03-23T09:00:00;9.50;99.90
7014;DHT22;3547;50.774;12.918;2024-03-23T09:02:26;9.50;99.90
7014;DHT22;3547;50.774;12.918;2024-03-23T09:04:55;9.50;93.40
7014;DHT22;3547;50.774;12.918;2024-03-23T09:07:26;9.10;97.70
7014;DHT22;3547;50.774;12.918;2024-03-23T09:09:53;8.30;99.90
7014;DHT22;3547;50.774;12.918;2024-03-23T09:12:21;7.90;99.90
7014;DHT22;3547;50.774;12.918;2024-03-23T09:14:47;7.60;99.90
7014;DHT22;3547;50.774;12.918;2024-03-23T09:17:15;7.30;99.90
7014;DHT22;3547;50.774;12.918;2024-03-23T09:19:41;6.90;1.00
7014;DHT22;3547;50.774;12.918;2024-03-23T09:22:07;6.30;99.90
7014;DHT22;3547;50.774;12.918;2024-03-23T09:24:33;5.70;99.90
7014;DHT22;3547;50.774;12.918;2024-03-23T09:30:22;5.10;99.90
7014;DHT22;3547;50.774;12.918;2024-03-23T09:32:48;4.90;1.00
7014;DHT22;3547;50.774;12.918;2024-03-23T09:38:36;4.60;1.00
7014;DHT22;3547;50.774;12.918;2024-03-23T09:41:07;4.50;1.00
7014;DHT22;3547;50.774;12.918;2024-03-23T09:43:35;4.40;99.90
7014;DHT22;3547;50.774;12.918;2024-03-23T09:46:07;4.30;99.90
7014;DHT22;3547;50.774;12.918;2024-03-23T09:52:16;4.10;99.90
7014;DHT22;3547;50.774;12.918;2024-03-23T09:54:45;4.00;99.90
7014;DHT22;3547;50.774;12.918;2024-03-23T10:00:34;3.80;99.90
7014;DHT22;3547;50.774;12.918;2024-03-23T10:23:58;4.00;99.90
7014;DHT22;3547;50.774;12.918;2024-03-23T10:27:19;3.70;99.90
7014;DHT22;3547;50.774;12.918;2024-03-23T10:33:47;3.80;99.90
7014;DHT22;3547;50.774;12.918;2024-03-23T10:36:14;3.70;99.90
7014;DHT22;3547;50.774;12.918;2024-03-23T10:38:44;3.60;99.90
7014;DHT22;3547;50.774;12.918;2024-03-23T12:01:12;4.80;99.30
7014;DHT22;3547;50.774;12.918;2024-03-23T12:03:38;4.70;99.90
7014;DHT22;3547;50.774;12.918;2024-03-23T12:06:12;4.80;99.20
7014;DHT22;3547;50.774;12.918;2024-03-23T12:08:38;4.90;94.20
7014;DHT22;3547;50.774;12.918;2024-03-23T12:11:17;4.90;74.40
7014;DHT22;3547;50.774;12.918;2024-03-23T12:13:46;4.90;81.50
7014;DHT22;3547;50.774;12.918;2024-03-23T12:16:34;4.90;93.30
7014;DHT22;3547;50.774;12.918;2024-03-23T12:19:10;4.80;93.80
7014;DHT22;3547;50.774;12.918;2024-03-23T12:21:45;4.80;75.30
7014;DHT22;3547;50.774;12.918;2024-03-23T12:24:21;4.90;89.30
7014;DHT22;3547;50.774;12.918;2024-03-23T12:36:46;4.50;75.80
7014;DHT22;3547;50.774;12.918;2024-03-23T12:42:53;4.40;55.30
7014;DHT22;3547;50.774;12.918;2024-03-23T12:45:31;4.20;54.50
7014;DHT22;3547;50.774;12.918;2024-03-23T12:51:59;4.70;66.60
7014;DHT22;3547;50.774;12.918;2024-03-23T12:54:52;4.80;43.40
7014;DHT22;3547;50.774;12.918;2024-03-23T13:00:41;5.10;38.60
7014;DHT22;3547;50.774;12.918;2024-03-23T13:03:18;5.60;39.80
7014;DHT22;3547;50.774;12.918;2024-03-23T13:06:17;5.80;22.40
7014;DHT22;3547;50.774;12.918;2024-03-23T13:09:11;6.00;14.70
7014;DHT22;3547;50.774;12.918;2024-03-23T13:11:40;6.40;17.90
7014;DHT22;3547;50.774;12.918;2024-03-23T13:20:42;6.90;1.00
7014;DHT22;3547;50.774;12.918;2024-03-23T13:23:11;7.70;1.00
7014;DHT22;3547;50.774;12.918;2024-03-23T13:32:16;7.90;1.00
7014;DHT22;3547;50.774;12.918;2024-03-23T13:37:57;8.00;1.00
7014;DHT22;3547;50.774;12.918;2024-03-23T13:58:15;8.10;1.00
7014;DHT22;3547;50.774;12.918;2024-03-23T14:00:44;7.70;1.00
7014;DHT22;3547;50.774;12.918;2024-03-23T14:03:26;6.90;1.00
7014;DHT22;3547;50.774;12.918;2024-03-23T14:05:58;6.60;1.00
7014;DHT22;3547;50.774;12.918;2024-03-23T14:15:44;7.60;1.00
7014;DHT22;3547;50.774;12.918;2024-03-23T14:18:31;7.90;1.00
7014;DHT22;3547;50.774;12.918;2024-03-23T14:20:59;8.00;1.00
7014;DHT22;3547;50.774;12.918;2024-03-23T14:23:29;7.90;1.00
7014;DHT22;3547;50.774;12.918;2024-03-23T14:25:59;7.60;1.00
7014;DHT22;3547;50.774;12.918;2024-03-23T14:28:33;7.80;1.00
7014;DHT22;3547;50.774;12.918;2024-03-23T14:31:02;7.70;1.00
7014;DHT22;3547;50.774;12.918;2024-03-23T14:33:38;8.10;1.00
7014;DHT22;3547;50.774;12.918;2024-03-23T14:36:07;8.20;1.00
7014;DHT22;3547;50.774;12.918;2024-03-23T14:38:34;8.10;1.00
7014;DHT22;3547;50.774;12.918;2024-03-23T14:41:01;7.70;1.00
7014;DHT22;3547;50.774;12.918;2024-03-23T14:43:33;7.50;1.00
7014;DHT22;3547;50.774;12.918;2024-03-23T14:46:16;7.80;1.00
7014;DHT22;3547;50.774;12.918;2024-03-23T14:52:32;8.30;1.00
7014;DHT22;3547;50.774;12.918;2024-03-23T14:55:14;8.80;1.00
7014;DHT22;3547;50.774;12.918;2024-03-23T14:57:44;8.80;1.00
7014;DHT22;3547;50.774;12.918;2024-03-23T15:00:13;8.10;1.00
7014;DHT22;3547;50.774;12.918;2024-03-23T15:02:40;7.70;1.00
7014;DHT22;3547;50.774;12.918;2024-03-23T15:05:13;7.60;1.00
7014;DHT22;3547;50.774;12.918;2024-03-23T15:07:40;7.80;1.00
7014;DHT22;3547;50.774;12.918;2024-03-23T15:13:52;8.00;1.00
7014;DHT22;3547;50.774;12.918;2024-03-23T15:16:29;8.50;1.00
7014;DHT22;3547;50.774;12.918;2024-03-23T15:18:59;8.00;1.00
7014;DHT22;3547;50.774;12.918;2024-03-23T15:21:47;7.90;1.00
7014;DHT22;3547;50.774;12.918;2024-03-23T15:24:20;8.00;1.00
7014;DHT22;3547;50.774;12.918;2024-03-23T15:26:46;8.30;1.00
7014;DHT22;3547;50.774;12.918;2024-03-23T15:29:13;8.40;1.00
7014;DHT22;3547;50.774;12.918;2024-03-23T15:38:09;9.50;1.00
7014;DHT22;3547;50.774;12.918;2024-03-23T15:44:00;9.30;1.00
7014;DHT22;3547;50.774;12.918;2024-03-23T15:46:27;8.90;1.00
7014;DHT22;3547;50.774;12.918;2024-03-23T15:52:16;8.40;1.00
7014;DHT22;3547;50.774;12.918;2024-03-23T15:54:43;8.10;1.00
7014;DHT22;3547;50.774;12.918;2024-03-23T15:57:24;8.10;1.00
7014;DHT22;3547;50.774;12.918;2024-03-23T15:59:51;8.10;1.00
7014;DHT22;3547;50.774;12.918;2024-03-23T16:05:41;8.00;1.00
7014;DHT22;3547;50.774;12.918;2024-03-23T16:08:07;7.60;1.00
7014;DHT22;3547;50.774;12.918;2024-03-23T16:17:14;7.50;1.00
7014;DHT22;3547;50.774;12.918;2024-03-23T16:19:54;7.40;1.00
7014;DHT22;3547;50.774;12.918;2024-03-23T16:22:23;6.50;1.00
7014;DHT22;3547;50.774;12.918;2024-03-23T16:34:36;5.20;1.00
7014;DHT22;3547;50.774;12.918;2024-03-23T16:37:05;5.20;1.00
7014;DHT22;3547;50.774;12.918;2024-03-23T17:00:42;5.50;1.00
7014;DHT22;3547;50.774;12.918;2024-03-23T17:06:45;5.40;1.00
7014;DHT22;3547;50.774;12.918;2024-03-23T17:12:52;5.40;1.00
7014;DHT22;3547;50.774;12.918;2024-03-23T17:18:58;5.20;1.00
7014;DHT22;3547;50.774;12.918;2024-03-23T17:31:58;4.80;1.00
7014;DHT22;3547;50.774;12.918;2024-03-23T17:34:50;4.70;1.00
7014;DHT22;3547;50.774;12.918;2024-03-23T17:37:17;4.70;1.00
7014;DHT22;3547;50.774;12.918;2024-03-23T17:47:13;4.30;1.00
7014;DHT22;3547;50.774;12.918;2024-03-23T17:49:46;4.20;1.00
7014;DHT22;3547;50.774;12.918;2024-03-23T17:52:12;4.10;1.00
7014;DHT22;3547;50.774;12.918;2024-03-23T17:54:39;4.10;1.00
7014;DHT22;3547;50.774;12.918;2024-03-23T17:57:06;4.20;1.00
7014;DHT22;3547;50.774;12.918;2024-03-23T17:59:33;4.20;1.00
7014;DHT22;3547;50.774;12.918;2024-03-23T18:02:16;4.20;1.00
7014;DHT22;3547;50.774;12.918;2024-03-23T18:05:08;4.10;1.00
7014;DHT22;3547;50.774;12.918;2024-03-23T18:11:19;4.00;1.00
7014;DHT22;3547;50.774;12.918;2024-03-23T18:13:45;4.10;1.00
7014;DHT22;3547;50.774;12.918;2024-03-23T18:16:41;4.10;1.00
7014;DHT22;3547;50.774;12.918;2024-03-23T18:22:39;4.10;1.00
7014;DHT22;3547;50.774;12.918;2024-03-23T18:25:21;4.10;1.00
7014;DHT22;3547;50.774;12.918;2024-03-23T18:35:21;4.00;1.00
7014;DHT22;3547;50.774;12.918;2024-03-23T18:37:50;4.00;1.00
7014;DHT22;3547;50.774;12.918;2024-03-23T18:43:41;3.90;1.00
7014;DHT22;3547;50.774;12.918;2024-03-23T18:46:26;3.80;1.00
7014;DHT22;3547;50.774;12.918;2024-03-23T18:48:54;3.90;1.00
7014;DHT22;3547;50.774;12.918;2024-03-23T18:58:50;4.10;1.00
7014;DHT22;3547;50.774;12.918;2024-03-23T19:01:35;4.30;1.00
7014;DHT22;3547;50.774;12.918;2024-03-23T19:04:02;4.30;1.00
7014;DHT22;3547;50.774;12.918;2024-03-23T19:10:06;4.30;1.00
7014;DHT22;3547;50.774;12.918;2024-03-23T19:12:48;4.40;1.00
7014;DHT22;3547;50.774;12.918;2024-03-23T19:18:37;4.40;1.00
7014;DHT22;3547;50.774;12.918;2024-03-23T19:21:03;4.30;1.00
7014;DHT22;3547;50.774;12.918;2024-03-23T19:23:30;4.30;1.00
7014;DHT22;3547;50.774;12.918;2024-03-23T19:29:06;4.10;1.00
7014;DHT22;3547;50.774;12.918;2024-03-23T19:31:45;4.10;1.00
7014;DHT22;3547;50.774;12.918;2024-03-23T19:34:11;4.00;1.00
7014;DHT22;3547;50.774;12.918;2024-03-23T19:36:37;4.00;1.00
7014;DHT22;3547;50.774;12.918;2024-03-23T19:42:08;3.90;1.00
7014;DHT22;3547;50.774;12.918;2024-03-23T19:44:34;3.80;1.00
7014;DHT22;3547;50.774;12.918;2024-03-23T19:47:06;3.70;1.00
7014;DHT22;3547;50.774;12.918;2024-03-23T19:49:32;3.70;1.00
7014;DHT22;3547;50.774;12.918;2024-03-23T19:51:58;3.60;1.00
7014;DHT22;3547;50.774;12.918;2024-03-23T19:54:27;3.60;1.00
7014;DHT22;3547;50.774;12.918;2024-03-23T19:57:18;3.40;1.00
7014;DHT22;3547;50.774;12.918;2024-03-23T19:59:45;3.30;1.00
7014;DHT22;3547;50.774;12.918;2024-03-23T20:02:11;3.20;1.00
7014;DHT22;3547;50.774;12.918;2024-03-23T20:04:37;3.10;1.00
7014;DHT22;3547;50.774;12.918;2024-03-23T20:07:03;3.00;1.00
7014;DHT22;3547;50.774;12.918;2024-03-23T20:09:42;3.10;1.00
7014;DHT22;3547;50.774;12.918;2024-03-23T20:12:08;3.10;1.00
7014;DHT22;3547;50.774;12.918;2024-03-23T20:14:35;3.10;1.00
7014;DHT22;3547;50.774;12.918;2024-03-23T20:17:04;3.00;1.00
7014;DHT22;3547;50.774;12.918;2024-03-23T20:19:51;3.00;1.00
7014;DHT22;3547;50.774;12.918;2024-03-23T20:33:13;2.80;1.00
7014;DHT22;3547;50.774;12.918;2024-03-23T20:49:53;2.80;1.00
7014;DHT22;3547;50.774;12.918;2024-03-23T20:52:19;2.70;1.00
7014;DHT22;3547;50.774;12.918;2024-03-23T20:54:46;2.70;1.00
7014;DHT22;3547;50.774;12.918;2024-03-23T20:57:24;2.70;1.00
7014;DHT22;3547;50.774;12.918;2024-03-23T20:59:50;2.70;1.00
7014;DHT22;3547;50.774;12.918;2024-03-23T21:02:26;2.70;1.00
7014;DHT22;3547;50.774;12.918;2024-03-23T21:04:52;2.70;1.00
7014;DHT22;3547;50.774;12.918;2024-03-23T21:07:18;2.60;1.00
7014;DHT22;3547;50.774;12.918;2024-03-23T21:09:53;2.60;1.00
7014;DHT22;3547;50.774;12.918;2024-03-23T21:12:37;2.60;1.00
7014;DHT22;3547;50.774;12.918;2024-03-23T21:15:11;2.60;1.00
7014;DHT22;3547;50.774;12.918;2024-03-23T21:17:43;2.60;1.00
7014;DHT22;3547;50.774;12.918;2024-03-23T21:20:13;2.60;1.00
7014;DHT22;3547;50.774;12.918;2024-03-23T21:22:45;2.60;1.00
7014;DHT22;3547;50.774;12.918;2024-03-23T21:25:12;2.60;1.00
7014;DHT22;3547;50.774;12.918;2024-03-23T21:27:49;2.60;1.00
7014;DHT22;3547;50.774;12.918;2024-03-23T21:30:15;2.60;1.00
7014;DHT22;3547;50.774;12.918;2024-03-23T21:32:47;2.60;1.00
7014;DHT22;3547;50.774;12.918;2024-03-23T21:35:19;2.60;1.00
7014;DHT22;3547;50.774;12.918;2024-03-23T21:37:57;2.60;1.00
7014;DHT22;3547;50.774;12.918;2024-03-23T21:40:23;2.70;1.00
7014;DHT22;3547;50.774;12.918;2024-03-23T21:42:49;2.70;1.00
7014;DHT22;3547;50.774;12.918;2024-03-23T21:45:15;2.80;1.00
7014;DHT22;3547;50.774;12.918;2024-03-23T21:47:43;2.80;1.00
7014;DHT22;3547;50.774;12.918;2024-03-23T21:50:27;2.80;1.00
7014;DHT22;3547;50.774;12.918;2024-03-23T21:53:10;2.70;1.00
7014;DHT22;3547;50.774;12.918;2024-03-23T21:55:49;2.80;1.00
7014;DHT22;3547;50.774;12.918;2024-03-23T21:58:42;2.80;1.00
7014;DHT22;3547;50.774;12.918;2024-03-23T22:02:08;2.70;1.00
7014;DHT22;3547;50.774;12.918;2024-03-23T22:04:38;2.70;1.00
7014;DHT22;3547;50.774;12.918;2024-03-23T22:07:13;2.70;1.00
7014;DHT22;3547;50.774;12.918;2024-03-23T22:09:39;2.60;1.00
7014;DHT22;3547;50.774;12.918;2024-03-23T22:12:13;2.60;1.00
7014;DHT22;3547;50.774;12.918;2024-03-23T22:14:39;2.70;1.00
7014;DHT22;3547;50.774;12.918;2024-03-23T22:17:17;2.70;1.00
7014;DHT22;3547;50.774;12.918;2024-03-23T22:19:58;2.70;1.00
7014;DHT22;3547;50.774;12.918;2024-03-23T22:22:40;2.70;1.00
7014;DHT22;3547;50.774;12.918;2024-03-23T22:28:31;2.80;1.00
7014;DHT22;3547;50.774;12.918;2024-03-23T22:37:45;2.70;1.00
7014;DHT22;3547;50.774;12.918;2024-03-23T22:40:35;2.60;1.00
7014;DHT22;3547;50.774;12.918;2024-03-23T22:43:18;2.60;1.00
7014;DHT22;3547;50.774;12.918;2024-03-23T22:45:59;2.60;1.00
7014;DHT22;3547;50.774;12.918;2024-03-23T22:49:01;2.70;1.00
7014;DHT22;3547;50.774;12.918;2024-03-23T22:52:01;2.70;1.00
7014;DHT22;3547;50.774;12.918;2024-03-23T22:54:48;2.70;1.00
7014;DHT22;3547;50.774;12.918;2024-03-23T22:57:14;2.70;1.00
7014;DHT22;3547;50.774;12.918;2024-03-23T23:02:32;2.70;1.00
7014;DHT22;3547;50.774;12.918;2024-03-23T23:04:58;2.60;1.00
7014;DHT22;3547;50.774;12.918;2024-03-23T23:10:46;2.70;1.00
7014;DHT22;3547;50.774;12.918;2024-03-23T23:16:35;2.60;1.00
7014;DHT22;3547;50.774;12.918;2024-03-23T23:19:03;2.60;1.00
7014;DHT22;3547;50.774;12.918;2024-03-23T23:25:17;2.50;1.00
7014;DHT22;3547;50.774;12.918;2024-03-23T23:27:46;2.60;1.00
7014;DHT22;3547;50.774;12.918;2024-03-23T23:30:12;2.60;1.00
7014;DHT22;3547;50.774;12.918;2024-03-23T23:32:39;2.50;1.00
7014;DHT22;3547;50.774;12.918;2024-03-23T23:35:07;2.60;1.00
7014;DHT22;3547;50.774;12.918;2024-03-23T23:37:34;2.60;1.00
7014;DHT22;3547;50.774;12.918;2024-03-23T23:40:00;2.70;1.00
7014;DHT22;3547;50.774;12.918;2024-03-23T23:52:04;2.80;1.00
7014;DHT22;3547;50.774;12.918;2024-03-23T23:54:33;2.80;1.00
7014;DHT22;3547;50.774;12.918;2024-03-23T23:57:00;2.80;1.00
7014;DHT22;3547;50.774;12.918;2024-03-23T23:59:28;2.70;1.00
